createdAt,value
2019-02-10T00:00:40.328Z,100354.31
2019-02-10T00:03:08.810Z,100350.00
2019-02-10T00:05:37.364Z,100359.47
2019-02-10T00:08:05.830Z,100362.42
2019-02-10T00:10:34.364Z,100359.79
2019-02-10T00:13:22.574Z,100366.57
2019-02-10T00:15:51.043Z,100369.05
2019-02-10T00:18:19.963Z,100368.52
2019-02-10T00:20:48.528Z,100361.96
2019-02-10T00:23:16.975Z,100370.91
2019-02-10T00:25:45.444Z,100369.12
2019-02-10T00:28:13.955Z,100370.34
2019-02-10T00:30:42.684Z,100369.39
2019-02-10T00:33:11.145Z,100362.45
2019-02-10T00:35:39.662Z,100372.72
2019-02-10T00:38:08.124Z,100370.08
2019-02-10T00:40:36.599Z,100375.14
2019-02-10T00:43:05.098Z,100384.09
2019-02-10T00:45:33.565Z,100384.00
2019-02-10T00:48:02.032Z,100382.22
2019-02-10T00:50:30.544Z,100386.08
2019-02-10T00:52:59.021Z,100383.01
2019-02-10T00:55:27.500Z,100376.89
2019-02-10T00:57:55.977Z,100389.30
2019-02-10T01:00:24.600Z,100393.52
2019-02-10T01:02:53.052Z,100387.39
2019-02-10T01:05:21.551Z,100389.42
2019-02-10T01:07:50.003Z,100387.16
2019-02-10T01:10:20.034Z,100390.05
2019-02-10T01:12:48.533Z,100382.62
2019-02-10T01:15:16.988Z,100386.36
2019-02-10T01:17:45.460Z,100377.27
2019-02-10T01:20:14.138Z,100380.65
2019-02-10T01:22:42.604Z,100385.27
2019-02-10T01:25:11.138Z,100389.91
2019-02-10T01:27:39.677Z,100391.12
2019-02-10T01:30:11.275Z,100385.86
2019-02-10T01:32:39.960Z,100380.22
2019-02-10T01:35:08.547Z,100374.15
2019-02-10T01:37:37.021Z,100377.94
2019-02-10T01:40:07.819Z,100372.77
2019-02-10T01:42:36.298Z,100371.43
2019-02-10T01:45:07.385Z,100377.38
2019-02-10T01:47:35.856Z,100374.38
2019-02-10T01:50:06.302Z,100379.51
2019-02-10T01:52:34.839Z,100372.59
2019-02-10T01:55:03.483Z,100367.81
2019-02-10T01:57:31.975Z,100363.93
2019-02-10T02:00:00.431Z,100364.35
2019-02-10T02:02:28.890Z,100363.44
2019-02-10T02:04:57.400Z,100363.86
2019-02-10T02:07:25.925Z,100361.66
2019-02-10T02:09:54.390Z,100365.53
2019-02-10T02:12:22.901Z,100364.67
2019-02-10T02:14:51.359Z,100359.52
2019-02-10T02:17:19.817Z,100356.02
2019-02-10T02:19:48.608Z,100359.45
2019-02-10T02:22:17.681Z,100352.14
2019-02-10T02:24:46.144Z,100352.53
2019-02-10T02:27:14.643Z,100352.09
2019-02-10T02:29:43.107Z,100354.22
2019-02-10T02:32:11.561Z,100345.20
2019-02-10T02:34:40.421Z,100342.21
2019-02-10T02:37:08.885Z,100340.88
2019-02-10T02:39:37.359Z,100340.01
2019-02-10T02:42:05.835Z,100343.02
2019-02-10T02:44:34.277Z,100328.86
2019-02-10T02:47:02.804Z,100330.15
2019-02-10T02:49:31.303Z,100326.77
2019-02-10T02:51:59.771Z,100323.77
2019-02-10T02:54:28.224Z,100321.19
2019-02-10T02:56:56.722Z,100325.91
2019-02-10T02:59:25.179Z,100321.61
2019-02-10T03:01:53.665Z,100325.00
2019-02-10T03:04:22.139Z,100323.27
2019-02-10T03:06:50.616Z,100309.95
2019-02-10T03:09:19.086Z,100316.83
2019-02-10T03:11:47.583Z,100303.45
2019-02-10T03:14:16.056Z,100308.61
2019-02-10T03:16:44.498Z,100299.59
2019-02-10T03:19:12.980Z,100303.52
2019-02-10T03:21:41.432Z,100306.09
2019-02-10T03:24:09.891Z,100297.07
2019-02-10T03:26:38.398Z,100294.52
2019-02-10T03:29:06.851Z,100301.80
2019-02-10T03:31:35.311Z,100290.21
2019-02-10T03:34:03.797Z,100283.72
2019-02-10T03:36:33.342Z,100281.08
2019-02-10T03:39:01.791Z,100287.46
2019-02-10T03:41:30.330Z,100294.69
2019-02-10T03:43:58.780Z,100295.48
2019-02-10T03:46:27.252Z,100286.88
2019-02-10T03:48:55.757Z,100286.38
2019-02-10T03:51:24.236Z,100278.17
2019-02-10T03:53:52.696Z,100281.13
2019-02-10T03:56:21.202Z,100281.91
2019-02-10T03:58:49.642Z,100275.47
2019-02-10T04:01:18.095Z,100276.28
2019-02-10T04:03:46.580Z,100277.09
2019-02-10T04:06:15.027Z,100279.19
2019-02-10T04:08:43.489Z,100285.23
2019-02-10T04:11:13.541Z,100277.46
2019-02-10T04:13:42.003Z,100278.33
2019-02-10T04:16:10.463Z,100280.46
2019-02-10T04:18:38.999Z,100279.59
2019-02-10T04:21:07.447Z,100270.11
2019-02-10T04:23:35.900Z,100270.09
2019-02-10T04:26:04.373Z,100267.04
2019-02-10T04:28:32.833Z,100260.59
2019-02-10T04:31:01.294Z,100261.83
2019-02-10T04:33:29.796Z,100259.67
2019-02-10T04:35:58.253Z,100257.47
2019-02-10T04:38:27.736Z,100250.59
2019-02-10T04:40:56.217Z,100243.66
2019-02-10T04:43:24.668Z,100241.88
2019-02-10T04:45:53.122Z,100233.27
2019-02-10T04:48:21.605Z,100228.48
2019-02-10T04:50:50.087Z,100225.03
2019-02-10T04:53:18.509Z,100227.13
2019-02-10T04:55:50.174Z,100219.83
2019-02-10T04:58:18.623Z,100209.48
2019-02-10T05:00:47.081Z,100203.95
2019-02-10T05:03:15.576Z,100198.38
2019-02-10T05:05:44.036Z,100202.23
2019-02-10T05:08:12.488Z,100194.54
2019-02-10T05:10:40.978Z,100193.73
2019-02-10T05:13:09.426Z,100180.06
2019-02-10T05:15:37.879Z,100186.94
2019-02-10T05:18:06.368Z,100189.14
2019-02-10T05:20:34.818Z,100186.63
2019-02-10T05:23:03.264Z,100184.48
2019-02-10T05:25:31.759Z,100182.83
2019-02-10T05:28:00.220Z,100180.75
2019-02-10T05:30:28.693Z,100176.52
2019-02-10T05:32:57.179Z,100179.16
2019-02-10T05:35:25.639Z,100171.92
2019-02-10T05:37:54.105Z,100173.21
2019-02-10T05:40:23.615Z,100167.64
2019-02-10T05:42:52.051Z,100165.98
2019-02-10T05:45:20.549Z,100168.64
2019-02-10T05:47:49.058Z,100169.94
2019-02-10T05:50:17.500Z,100163.55
2019-02-10T05:52:46.107Z,100165.70
2019-02-10T05:55:14.610Z,100158.89
2019-02-10T05:57:43.078Z,100162.33
2019-02-10T06:00:11.600Z,100159.80
2019-02-10T06:02:40.150Z,100153.39
2019-02-10T06:05:14.342Z,100152.58
2019-02-10T06:07:42.789Z,100150.86
2019-02-10T06:10:11.361Z,100143.58
2019-02-10T06:12:39.905Z,100139.81
2019-02-10T06:15:09.580Z,100139.39
2019-02-10T06:17:38.082Z,100139.02
2019-02-10T06:20:09.080Z,100133.88
2019-02-10T06:22:37.554Z,100130.92
2019-02-10T06:25:08.641Z,100128.78
2019-02-10T06:27:37.112Z,100122.84
2019-02-10T06:30:10.373Z,100112.52
2019-02-10T06:32:38.875Z,100111.67
2019-02-10T06:35:08.776Z,100108.72
2019-02-10T06:37:37.226Z,100102.33
2019-02-10T06:40:07.858Z,100098.04
2019-02-10T06:42:37.375Z,100098.95
2019-02-10T06:45:08.776Z,100099.01
2019-02-10T06:47:37.277Z,100093.91
2019-02-10T06:50:07.056Z,100092.25
2019-02-10T06:52:35.525Z,100085.86
2019-02-10T06:55:05.380Z,100086.77
2019-02-10T06:57:33.832Z,100080.39
2019-02-10T07:00:06.358Z,100082.62
2019-02-10T07:02:39.662Z,100078.82
2019-02-10T07:05:10.658Z,100078.05
2019-02-10T07:07:39.116Z,100075.05
2019-02-10T07:10:08.269Z,100074.25
2019-02-10T07:12:49.591Z,100074.72
2019-02-10T07:15:54.849Z,100067.86
2019-02-10T07:19:00.023Z,100063.18
2019-02-10T07:21:33.489Z,100062.38
2019-02-10T07:24:05.186Z,100061.98
2019-02-10T07:26:54.129Z,100063.72
2019-02-10T07:29:50.179Z,100046.14
2019-02-10T07:32:21.896Z,100045.72
2019-02-10T07:35:13.116Z,100042.33
2019-02-10T07:37:47.647Z,100039.76
2019-02-10T07:40:46.684Z,100038.47
2019-02-10T07:43:21.698Z,100034.17
2019-02-10T07:46:11.386Z,100029.02
2019-02-10T07:48:48.691Z,100026.87
2019-02-10T07:51:25.763Z,100017.41
2019-02-10T07:53:59.988Z,100020.47
2019-02-10T07:56:31.622Z,100014.07
2019-02-10T07:59:12.361Z,100017.55
2019-02-10T08:01:49.566Z,100005.61
2019-02-10T08:04:33.220Z,99998.75
2019-02-10T08:07:10.772Z,99991.09
2019-02-10T08:09:57.380Z,99986.03
2019-02-10T08:12:55.904Z,99979.23
2019-02-10T08:15:39.358Z,99981.51
2019-02-10T08:18:31.376Z,99961.78
2019-02-10T08:21:18.210Z,99962.30
2019-02-10T08:24:14.758Z,99947.36
2019-02-10T08:26:49.346Z,99950.02
2019-02-10T08:29:35.865Z,99940.17
2019-02-10T08:32:25.572Z,99933.80
2019-02-10T08:34:59.865Z,99919.64
2019-02-10T08:37:57.528Z,99915.38
2019-02-10T08:40:41.108Z,99902.91
2019-02-10T08:43:21.613Z,99900.36
2019-02-10T08:46:12.915Z,99896.48
2019-02-10T08:49:02.747Z,99894.34
2019-02-10T08:51:40.222Z,99882.80
2019-02-10T08:54:09.442Z,99869.53
2019-02-10T08:56:37.889Z,99863.14
2019-02-10T08:59:06.338Z,99855.86
2019-02-10T09:01:34.822Z,99848.19
2019-02-10T09:04:03.280Z,99839.20
2019-02-10T09:06:31.754Z,99832.78
2019-02-10T09:09:02.574Z,99834.99
2019-02-10T09:11:30.442Z,99824.30
2019-02-10T09:13:58.899Z,99818.30
2019-02-10T09:16:27.376Z,99807.56
2019-02-10T09:19:09.981Z,99801.19
2019-02-10T09:21:38.486Z,99780.94
2019-02-10T09:24:07.003Z,99774.50
2019-02-10T09:26:35.455Z,99762.88
2019-02-10T09:29:03.956Z,99758.15
2019-02-10T09:31:33.228Z,99753.81
2019-02-10T09:34:01.712Z,99749.09
2019-02-10T09:36:30.185Z,99743.89
2019-02-10T09:38:58.630Z,99740.03
2019-02-10T09:41:27.082Z,99734.43
2019-02-10T09:43:55.577Z,99730.58
2019-02-10T09:46:25.085Z,99727.59
2019-02-10T09:48:53.528Z,99714.70
2019-02-10T09:51:22.095Z,99710.85
2019-02-10T09:53:50.560Z,99694.50
2019-02-10T09:56:19.005Z,99684.56
2019-02-10T09:58:47.489Z,99688.44
2019-02-10T10:01:15.961Z,99679.84
2019-02-10T10:03:44.408Z,99681.16
2019-02-10T10:06:12.908Z,99667.81
2019-02-10T10:08:41.383Z,99669.55
2019-02-10T10:11:09.823Z,99656.64
2019-02-10T10:13:38.324Z,99645.02
2019-02-10T10:16:06.776Z,99629.94
2019-02-10T10:18:35.247Z,99623.89
2019-02-10T10:21:03.718Z,99609.66
2019-02-10T10:23:32.177Z,99594.12
2019-02-10T10:26:00.610Z,99590.25
2019-02-10T10:28:29.128Z,99577.75
2019-02-10T10:30:57.591Z,99570.86
2019-02-10T10:33:26.048Z,99561.80
2019-02-10T10:35:54.549Z,99555.75
2019-02-10T10:38:22.992Z,99551.87
2019-02-10T10:40:51.438Z,99543.68
2019-02-10T10:43:19.926Z,99530.73
2019-02-10T10:45:48.377Z,99513.95
2019-02-10T10:48:17.021Z,99510.94
2019-02-10T10:50:45.614Z,99505.73
2019-02-10T10:53:14.059Z,99502.30
2019-02-10T10:55:42.837Z,99503.16
2019-02-10T10:58:11.250Z,99493.70
2019-02-10T11:00:39.707Z,99477.34
2019-02-10T11:03:08.159Z,99457.13
2019-02-10T11:05:36.656Z,99455.42
2019-02-10T11:08:05.107Z,99454.98
2019-02-10T11:10:33.549Z,99435.19
2019-02-10T11:13:02.022Z,99430.05
2019-02-10T11:15:30.469Z,99421.02
2019-02-10T11:17:58.917Z,99392.19
2019-02-10T11:20:27.397Z,99386.58
2019-02-10T11:22:55.892Z,99374.14
2019-02-10T11:25:24.300Z,99359.50
2019-02-10T11:27:52.800Z,99344.02
2019-02-10T11:30:21.326Z,99333.23
2019-02-10T11:32:49.770Z,99331.50
2019-02-10T11:35:18.244Z,99316.46
2019-02-10T11:37:46.694Z,99317.30
2019-02-10T11:40:15.178Z,99306.56
2019-02-10T11:42:43.668Z,99291.52
2019-02-10T11:45:13.859Z,99283.78
2019-02-10T11:47:42.326Z,99282.47
2019-02-10T11:50:12.577Z,99276.89
2019-02-10T11:52:41.030Z,99270.00
2019-02-10T11:55:10.318Z,99260.11
2019-02-10T11:57:38.810Z,99257.55
2019-02-10T12:00:16.142Z,99249.39
2019-02-10T12:02:44.619Z,99241.64
2019-02-10T12:05:13.071Z,99237.34
2019-02-10T12:07:41.523Z,99222.29
2019-02-10T12:10:13.937Z,99221.44
2019-02-10T12:12:42.359Z,99206.41
2019-02-10T12:15:13.331Z,99198.23
2019-02-10T12:17:41.807Z,99188.34
2019-02-10T12:20:14.530Z,99177.58
2019-02-10T12:22:49.901Z,99180.19
2019-02-10T12:25:13.163Z,99171.55
2019-02-10T12:27:41.612Z,99168.13
2019-02-10T12:30:13.232Z,99171.13
2019-02-10T12:32:45.017Z,99168.56
2019-02-10T12:35:13.570Z,99147.06
2019-02-10T12:37:42.009Z,99141.91
2019-02-10T12:40:15.146Z,99129.84
2019-02-10T12:42:43.630Z,99119.52
2019-02-10T12:45:13.914Z,99111.78
2019-02-10T12:47:42.486Z,99105.77
2019-02-10T12:50:17.115Z,99094.14
2019-02-10T12:52:45.687Z,99091.13
2019-02-10T12:55:14.400Z,99080.35
2019-02-10T12:57:42.832Z,99073.91
2019-02-10T13:00:20.896Z,99068.30
2019-02-10T13:02:52.278Z,99063.15
2019-02-10T13:05:20.759Z,99048.50
2019-02-10T13:07:49.240Z,99034.72
2019-02-10T13:10:18.447Z,99035.58
2019-02-10T13:12:48.025Z,99022.23
2019-02-10T13:15:16.627Z,99017.91
2019-02-10T13:17:45.074Z,99001.52
2019-02-10T13:20:13.932Z,98992.50
2019-02-10T13:22:42.526Z,98984.73
2019-02-10T13:25:12.109Z,98977.39
2019-02-10T13:27:40.663Z,98981.28
2019-02-10T13:30:33.889Z,98976.52
2019-02-10T13:33:02.446Z,98969.63
2019-02-10T13:35:30.892Z,98963.59
2019-02-10T13:37:59.368Z,98948.50
2019-02-10T13:40:27.952Z,98936.88
2019-02-10T13:42:56.413Z,98928.69
2019-02-10T13:45:24.906Z,98914.92
2019-02-10T13:47:53.396Z,98915.36
2019-02-10T13:50:21.848Z,98906.73
2019-02-10T13:52:50.343Z,98903.70
2019-02-10T13:55:19.025Z,98903.27
2019-02-10T13:57:47.493Z,98901.58
2019-02-10T14:00:21.184Z,98897.26
2019-02-10T14:02:49.641Z,98897.23
2019-02-10T14:05:18.087Z,98893.36
2019-02-10T14:07:46.640Z,98891.66
2019-02-10T14:10:24.904Z,98885.19
2019-02-10T14:12:46.537Z,98884.75
2019-02-10T14:15:16.465Z,98879.58
2019-02-10T14:17:44.940Z,98865.37
2019-02-10T14:20:15.867Z,98863.20
2019-02-10T14:22:44.352Z,98852.86
2019-02-10T14:25:12.785Z,98845.99
2019-02-10T14:27:41.256Z,98836.51
2019-02-10T14:30:16.989Z,98835.66
2019-02-10T14:32:45.698Z,98834.34
2019-02-10T14:35:14.143Z,98836.07
2019-02-10T14:37:42.618Z,98821.86
2019-02-10T14:40:11.200Z,98822.71
2019-02-10T14:42:39.659Z,98823.56
2019-02-10T14:45:10.865Z,98821.39
2019-02-10T14:47:39.364Z,98820.53
2019-02-10T14:50:13.313Z,98812.34
2019-02-10T14:52:41.846Z,98794.66
2019-02-10T14:55:10.468Z,98808.44
2019-02-10T14:57:39.300Z,98795.52
2019-02-10T15:00:15.593Z,98796.36
2019-02-10T15:02:44.412Z,98787.76
2019-02-10T15:05:12.868Z,98786.02
2019-02-10T15:07:41.510Z,98782.59
2019-02-10T15:10:21.018Z,98789.91
2019-02-10T15:12:49.512Z,98778.27
2019-02-10T15:15:17.970Z,98768.34
2019-02-10T15:17:46.454Z,98767.49
2019-02-10T15:20:15.100Z,98760.14
2019-02-10T15:22:43.550Z,98763.61
2019-02-10T15:25:13.159Z,98761.88
2019-02-10T15:27:41.662Z,98760.59
2019-02-10T15:30:13.272Z,98761.44
2019-02-10T15:32:41.756Z,98763.13
2019-02-10T15:35:10.834Z,98756.67
2019-02-10T15:37:39.302Z,98747.19
2019-02-10T15:40:10.030Z,98737.29
2019-02-10T15:42:38.511Z,98729.54
2019-02-10T15:45:10.176Z,98726.95
2019-02-10T15:47:38.654Z,98729.58
2019-02-10T15:50:10.356Z,98717.06
2019-02-10T15:52:38.826Z,98720.53
2019-02-10T15:55:09.721Z,98720.94
2019-02-10T15:57:38.208Z,98707.57
2019-02-10T16:00:10.062Z,98709.31
2019-02-10T16:02:38.497Z,98704.13
2019-02-10T16:05:07.006Z,98699.81
2019-02-10T16:07:35.447Z,98698.08
2019-02-10T16:10:05.052Z,98695.05
2019-02-10T16:12:33.547Z,98693.31
2019-02-10T16:15:02.021Z,98692.02
2019-02-10T16:17:30.473Z,98688.14
2019-02-10T16:19:58.935Z,98686.41
2019-02-10T16:22:27.377Z,98689.43
2019-02-10T16:24:55.899Z,98681.23
2019-02-10T16:27:24.483Z,98670.89
2019-02-10T16:29:53.169Z,98683.37
2019-02-10T16:32:21.656Z,98679.94
2019-02-10T16:34:50.142Z,98673.04
2019-02-10T16:37:18.597Z,98670.45
2019-02-10T16:39:47.038Z,98671.75
2019-02-10T16:42:15.536Z,98665.32
2019-02-10T16:44:44.038Z,98654.55
2019-02-10T16:47:12.480Z,98658.86
2019-02-10T16:49:40.979Z,98657.57
2019-02-10T16:52:09.434Z,98645.09
2019-02-10T16:54:37.907Z,98650.22
2019-02-10T16:57:06.392Z,98642.06
2019-02-10T16:59:34.852Z,98636.89
2019-02-10T17:02:03.465Z,98636.00
2019-02-10T17:04:31.963Z,98633.37
2019-02-10T17:07:00.429Z,98625.57
2019-02-10T17:09:28.885Z,98620.84
2019-02-10T17:11:57.374Z,98623.38
2019-02-10T17:14:26.240Z,98622.08
2019-02-10T17:16:54.778Z,98624.22
2019-02-10T17:19:24.572Z,98622.48
2019-02-10T17:21:53.046Z,98618.16
2019-02-10T17:24:21.579Z,98620.30
2019-02-10T17:26:50.058Z,98616.42
2019-02-10T17:29:18.522Z,98612.50
2019-02-10T17:31:46.977Z,98614.67
2019-02-10T17:34:15.470Z,98614.23
2019-02-10T17:36:43.966Z,98616.38
2019-02-10T17:39:13.257Z,98618.52
2019-02-10T17:41:41.816Z,98614.63
2019-02-10T17:44:10.344Z,98621.95
2019-02-10T17:46:38.780Z,98616.78
2019-02-10T17:49:07.263Z,98618.05
2019-02-10T17:51:35.725Z,98621.89
2019-02-10T17:54:04.240Z,98619.34
2019-02-10T17:56:32.713Z,98615.47
2019-02-10T17:59:01.183Z,98612.04
2019-02-10T18:01:29.721Z,98615.09
2019-02-10T18:03:58.471Z,98622.48
2019-02-10T18:06:26.928Z,98626.81
2019-02-10T18:08:55.366Z,98626.02
2019-02-10T18:11:30.959Z,98618.30
2019-02-10T18:13:54.032Z,98616.61
2019-02-10T18:16:39.353Z,98616.62
2019-02-10T18:19:24.065Z,98620.09
2019-02-10T18:21:54.191Z,98614.52
2019-02-10T18:24:26.723Z,98613.64
2019-02-10T18:26:56.799Z,98615.41
2019-02-10T18:29:42.807Z,98622.73
2019-02-10T18:32:24.617Z,98618.89
2019-02-10T18:34:54.770Z,98627.48
2019-02-10T18:37:30.541Z,98635.20
2019-02-10T18:40:16.878Z,98627.45
2019-02-10T18:42:46.955Z,98627.89
2019-02-10T18:45:17.122Z,98623.16
2019-02-10T18:47:49.729Z,98627.89
2019-02-10T18:50:25.958Z,98629.63
2019-02-10T18:52:56.076Z,98637.79
2019-02-10T18:55:42.549Z,98629.63
2019-02-10T18:58:15.710Z,98638.23
2019-02-10T19:01:01.123Z,98638.67
2019-02-10T19:03:31.265Z,98631.37
2019-02-10T19:06:11.420Z,98628.34
2019-02-10T19:08:41.543Z,98636.94
2019-02-10T19:11:14.518Z,98635.65
2019-02-10T19:14:00.589Z,98633.91
2019-02-10T19:16:42.602Z,98638.67
2019-02-10T19:19:18.638Z,98636.09
2019-02-10T19:21:48.732Z,98635.61
2019-02-10T19:24:21.824Z,98645.09
2019-02-10T19:26:51.961Z,98644.65
2019-02-10T19:29:38.289Z,98654.09
2019-02-10T19:32:14.480Z,98647.23
2019-02-10T19:34:44.540Z,98645.09
2019-02-10T19:37:14.628Z,98642.51
2019-02-10T19:39:44.752Z,98633.91
2019-02-10T19:42:14.853Z,98640.78
2019-02-10T19:44:57.225Z,98648.97
2019-02-10T19:47:27.320Z,98649.86
2019-02-10T19:50:09.472Z,98653.30
2019-02-10T19:52:48.102Z,98660.59
2019-02-10T19:55:20.754Z,98657.17
2019-02-10T19:57:56.824Z,98661.04
2019-02-10T20:00:43.419Z,98655.84
2019-02-10T20:03:29.763Z,98652.40
2019-02-10T20:06:02.830Z,98653.25
2019-02-10T20:08:33.184Z,98641.17
2019-02-10T20:11:09.444Z,98637.29
2019-02-10T20:13:48.759Z,98639.88
2019-02-10T20:16:18.878Z,98643.31
2019-02-10T20:18:51.649Z,98639.47
2019-02-10T20:21:21.721Z,98642.52
2019-02-10T20:23:51.866Z,98648.17
2019-02-10T20:26:31.092Z,98649.95
2019-02-10T20:29:07.455Z,98650.88
2019-02-10T20:31:43.495Z,98644.86
2019-02-10T20:34:16.309Z,98649.63
2019-02-10T20:36:49.372Z,98648.34
2019-02-10T20:39:34.780Z,98647.45
2019-02-10T20:42:12.153Z,98661.22
2019-02-10T20:44:52.868Z,98659.52
2019-02-10T20:47:22.974Z,98668.97
2019-02-10T20:50:02.149Z,98675.43
2019-02-10T20:52:46.188Z,98682.33
2019-02-10T20:55:12.902Z,98683.22
2019-02-10T20:57:42.986Z,98678.94
2019-02-10T21:00:18.681Z,98677.20
2019-02-10T21:02:54.521Z,98678.50
2019-02-10T21:05:24.659Z,98675.51
2019-02-10T21:07:54.746Z,98677.23
2019-02-10T21:10:26.796Z,98685.40
2019-02-10T21:12:56.917Z,98675.51
2019-02-10T21:15:27.011Z,98675.91
2019-02-10T21:18:03.037Z,98681.52
2019-02-10T21:20:34.506Z,98679.34
2019-02-10T21:23:19.395Z,98678.94
2019-02-10T21:26:04.516Z,98695.29
2019-02-10T21:28:37.617Z,98688.83
2019-02-10T21:31:07.721Z,98674.18
2019-02-10T21:33:43.603Z,98685.39
2019-02-10T21:36:13.691Z,98688.83
2019-02-10T21:38:43.920Z,98685.80
2019-02-10T21:41:14.044Z,98689.27
2019-02-10T21:43:44.136Z,98687.53
2019-02-10T21:46:14.237Z,98685.80
2019-02-10T21:48:44.369Z,98688.39
2019-02-10T21:51:12.825Z,98685.36
2019-02-10T21:53:41.285Z,98690.97
2019-02-10T21:56:09.771Z,98693.55
2019-02-10T21:58:38.223Z,98690.97
2019-02-10T22:01:06.665Z,98699.61
2019-02-10T22:03:35.160Z,98695.29
2019-02-10T22:06:03.615Z,98699.16
2019-02-10T22:08:32.074Z,98705.22
2019-02-10T22:11:00.702Z,98695.29
2019-02-10T22:13:29.160Z,98706.92
2019-02-10T22:15:57.610Z,98713.34
2019-02-10T22:18:26.223Z,98716.77
2019-02-10T22:20:54.614Z,98710.72
2019-02-10T22:23:23.050Z,98704.70
2019-02-10T22:25:51.524Z,98705.95
2019-02-10T22:28:19.967Z,98705.55
2019-02-10T22:30:48.413Z,98703.37
2019-02-10T22:33:16.910Z,98700.78
2019-02-10T22:35:45.360Z,98696.95
2019-02-10T22:38:13.816Z,98698.23
2019-02-10T22:40:42.324Z,98693.95
2019-02-10T22:43:10.763Z,98699.53
2019-02-10T22:45:39.194Z,98720.68
2019-02-10T22:48:07.675Z,98717.69
2019-02-10T22:50:36.127Z,98720.76
2019-02-10T22:53:04.568Z,98716.55
2019-02-10T22:55:33.058Z,98718.78
2019-02-10T22:58:01.491Z,98711.54
2019-02-10T23:00:48.282Z,98712.04
2019-02-10T23:03:16.774Z,98707.81
2019-02-10T23:05:45.293Z,98709.62
2019-02-10T23:08:13.794Z,98721.27
2019-02-10T23:10:42.239Z,98727.33
2019-02-10T23:13:11.699Z,98732.07
2019-02-10T23:15:40.178Z,98737.23
2019-02-10T23:18:08.635Z,98742.80
2019-02-10T23:20:37.135Z,98743.68
2019-02-10T23:23:05.636Z,98744.53
2019-02-10T23:25:34.081Z,98746.23
2019-02-10T23:28:02.540Z,98751.83
2019-02-10T23:30:31.013Z,98754.85
2019-02-10T23:32:59.463Z,98759.59
2019-02-10T23:35:27.936Z,98760.89
2019-02-10T23:37:56.424Z,98761.73
2019-02-10T23:40:24.891Z,98769.47
2019-02-10T23:42:53.327Z,98777.68
2019-02-10T23:45:21.807Z,98785.41
2019-02-10T23:47:50.264Z,98792.30
2019-02-10T23:50:18.721Z,98795.75
2019-02-10T23:52:47.225Z,98795.77
2019-02-10T23:55:15.676Z,98804.81
2019-02-10T23:57:44.133Z,98812.12
